createdAt,value
2023-03-27T00:02:08.844Z,100235.47
2023-03-27T00:04:35.773Z,100242.41
2023-03-27T00:07:03.993Z,100245.88
2023-03-27T00:09:32.518Z,100257.16
2023-03-27T00:12:01.110Z,100258.13
2023-03-27T00:14:27.979Z,100263.44
2023-03-27T00:16:54.879Z,100266.94
2023-03-27T00:19:21.982Z,100266.03
2023-03-27T00:21:48.948Z,100257.56
2023-03-27T00:24:16.136Z,100273.19
2023-03-27T00:26:43.516Z,100275.72
2023-03-27T00:29:10.739Z,100282.72
2023-03-27T00:31:37.567Z,100287.19
2023-03-27T00:34:04.340Z,100292.34
2023-03-27T00:36:31.644Z,100295.78
2023-03-27T00:38:58.476Z,100301.91
2023-03-27T00:41:26.181Z,100295.06
2023-03-27T00:43:54.299Z,100306.38
2023-03-27T00:46:44.891Z,100301.38
2023-03-27T00:49:14.269Z,100313.56
2023-03-27T00:51:43.476Z,100311.03
2023-03-27T00:54:12.812Z,100322.13
2023-03-27T00:56:39.711Z,100311.66
2023-03-27T00:59:12.689Z,100314.22
2023-03-27T01:01:40.518Z,100319.38
2023-03-27T01:04:09.214Z,100321.13
2023-03-27T01:06:38.778Z,100323.88
2023-03-27T01:09:05.652Z,100323.09
2023-03-27T01:11:35.345Z,100335.25
2023-03-27T01:14:20.854Z,100345.63
2023-03-27T01:17:32.673Z,100340.38
2023-03-27T01:20:10.141Z,100340.44
2023-03-27T01:22:52.787Z,100328.34
2023-03-27T01:25:28.504Z,100333.63
2023-03-27T01:28:08.662Z,100343.25
2023-03-27T01:30:53.166Z,100343.38
2023-03-27T01:33:50.878Z,100358.06
2023-03-27T01:36:52.506Z,100372.00
2023-03-27T01:39:42.133Z,100368.63
2023-03-27T01:42:38.745Z,100378.22
2023-03-27T01:45:31.203Z,100385.16
2023-03-27T01:48:11.288Z,100393.72
2023-03-27T01:50:44.756Z,100398.03
2023-03-27T01:53:29.237Z,100399.75
2023-03-27T01:56:05.993Z,100399.00
2023-03-27T01:58:47.037Z,100398.97
2023-03-27T02:01:23.678Z,100398.13
2023-03-27T02:03:54.452Z,100399.84
2023-03-27T02:06:28.579Z,100400.75
2023-03-27T02:09:18.016Z,100412.06
2023-03-27T02:11:49.931Z,100406.03
2023-03-27T02:14:23.507Z,100411.38
2023-03-27T02:16:56.995Z,100406.97
2023-03-27T02:19:34.056Z,100416.59
2023-03-27T02:22:01.341Z,100415.88
2023-03-27T02:24:28.120Z,100423.53
2023-03-27T02:27:04.318Z,100428.78
2023-03-27T02:29:50.251Z,100438.19
2023-03-27T02:32:51.300Z,100442.63
2023-03-27T02:35:17.978Z,100446.03
2023-03-27T02:37:53.456Z,100452.06
2023-03-27T02:40:29.330Z,100462.47
2023-03-27T02:43:07.340Z,100458.19
2023-03-27T02:45:46.351Z,100464.34
2023-03-27T02:48:23.618Z,100477.34
2023-03-27T02:51:03.202Z,100480.84
2023-03-27T02:53:35.527Z,100483.59
2023-03-27T02:56:04.544Z,100487.84
2023-03-27T02:58:53.596Z,100491.38
2023-03-27T03:01:22.504Z,100496.59
2023-03-27T03:04:17.564Z,100501.75
2023-03-27T03:06:44.899Z,100499.25
2023-03-27T03:09:15.090Z,100503.59
2023-03-27T03:11:53.406Z,100513.97
2023-03-27T03:14:25.012Z,100504.44
2023-03-27T03:16:51.929Z,100507.94
2023-03-27T03:19:18.694Z,100514.84
2023-03-27T03:21:49.838Z,100513.13
2023-03-27T03:24:17.800Z,100530.41
2023-03-27T03:26:45.352Z,100537.31
2023-03-27T03:29:13.033Z,100533.06
2023-03-27T03:31:45.729Z,100551.97
2023-03-27T03:34:18.708Z,100555.44
2023-03-27T03:36:50.161Z,100562.38
2023-03-27T03:39:17.696Z,100569.28
2023-03-27T03:41:44.512Z,100571.84
2023-03-27T03:44:11.284Z,100577.91
2023-03-27T03:46:38.229Z,100583.94
2023-03-27T03:49:05.180Z,100581.34
2023-03-27T03:51:33.418Z,100585.69
2023-03-27T03:54:01.529Z,100589.13
2023-03-27T03:56:30.684Z,100590.88
2023-03-27T03:58:57.779Z,100599.50
2023-03-27T04:01:26.316Z,100597.78
2023-03-27T04:03:53.241Z,100603.84
2023-03-27T04:06:26.964Z,100602.97
2023-03-27T04:08:53.826Z,100615.91
2023-03-27T04:11:20.943Z,100624.53
2023-03-27T04:13:47.754Z,100621.94
2023-03-27T04:16:15.757Z,100617.63
2023-03-27T04:18:42.861Z,100623.69
2023-03-27T04:21:16.617Z,100619.34
2023-03-27T04:23:45.185Z,100626.25
2023-03-27T04:26:12.676Z,100624.50
2023-03-27T04:28:40.076Z,100636.59
2023-03-27T04:31:08.132Z,100631.41
2023-03-27T04:33:39.586Z,100629.69
2023-03-27T04:36:08.503Z,100636.59
2023-03-27T04:38:37.244Z,100649.50
2023-03-27T04:41:04.872Z,100645.19
2023-03-27T04:43:31.870Z,100657.25
2023-03-27T04:45:58.637Z,100658.97
2023-03-27T04:48:26.936Z,100660.69
2023-03-27T04:50:53.694Z,100664.13
2023-03-27T04:53:20.692Z,100666.72
2023-03-27T04:55:51.377Z,100673.59
2023-03-27T04:58:18.890Z,100673.59
2023-03-27T05:00:50.557Z,100680.50
2023-03-27T05:03:20.626Z,100687.38
2023-03-27T05:05:49.759Z,100693.41
2023-03-27T05:08:17.259Z,100698.53
2023-03-27T05:10:45.339Z,100701.13
2023-03-27T05:13:12.506Z,100708.91
2023-03-27T05:15:39.433Z,100714.09
2023-03-27T05:18:07.643Z,100708.91
2023-03-27T05:20:35.405Z,100719.28
2023-03-27T05:23:02.714Z,100728.75
2023-03-27T05:25:33.258Z,100727.06
2023-03-27T05:28:01.029Z,100727.03
2023-03-27T05:30:28.633Z,100730.47
2023-03-27T05:32:59.548Z,100739.09
2023-03-27T05:35:28.786Z,100732.19
2023-03-27T05:37:56.433Z,100741.69
2023-03-27T05:40:25.848Z,100739.94
2023-03-27T05:42:54.054Z,100742.50
2023-03-27T05:45:21.528Z,100747.72
2023-03-27T05:47:49.641Z,100752.84
2023-03-27T05:50:18.165Z,100750.28
2023-03-27T05:52:45.532Z,100745.97
2023-03-27T05:55:14.120Z,100758.91
2023-03-27T05:57:42.234Z,100754.56
2023-03-27T06:00:12.209Z,100771.78
2023-03-27T06:02:39.588Z,100774.41
2023-03-27T06:05:13.516Z,100776.94
2023-03-27T06:07:43.028Z,100789.91
2023-03-27T06:10:13.620Z,100795.13
2023-03-27T06:12:42.001Z,100796.81
2023-03-27T06:15:10.220Z,100806.31
2023-03-27T06:17:40.083Z,100808.91
2023-03-27T06:20:12.939Z,100809.78
2023-03-27T06:22:44.186Z,100816.69
2023-03-27T06:25:11.112Z,100814.09
2023-03-27T06:27:38.136Z,100818.41
2023-03-27T06:30:06.146Z,100821.84
2023-03-27T06:32:33.006Z,100829.59
2023-03-27T06:34:59.831Z,100827.91
2023-03-27T06:37:26.555Z,100829.63
2023-03-27T06:39:55.015Z,100841.66
2023-03-27T06:42:23.982Z,100827.88
2023-03-27T06:44:50.790Z,100830.44
2023-03-27T06:47:17.691Z,100837.34
2023-03-27T06:49:47.909Z,100837.31
2023-03-27T06:52:18.122Z,100837.22
2023-03-27T06:54:44.911Z,100843.22
2023-03-27T06:57:12.591Z,100849.16
2023-03-27T06:59:39.224Z,100854.28
2023-03-27T07:02:06.449Z,100851.63
2023-03-27T07:04:33.623Z,100858.66
2023-03-27T07:07:00.430Z,100860.34
2023-03-27T07:09:27.197Z,100867.31
2023-03-27T07:11:54.513Z,100870.81
2023-03-27T07:14:21.348Z,100869.03
2023-03-27T07:16:48.223Z,100872.47
2023-03-27T07:19:15.029Z,100878.53
2023-03-27T07:21:41.748Z,100879.41
2023-03-27T07:24:08.815Z,100873.41
2023-03-27T07:26:35.562Z,100874.22
2023-03-27T07:29:03.279Z,100881.13
2023-03-27T07:31:49.126Z,100881.00
2023-03-27T07:34:17.548Z,100884.28
2023-03-27T07:36:44.920Z,100885.94
2023-03-27T07:39:14.389Z,100887.00
2023-03-27T07:41:41.209Z,100877.31
2023-03-27T07:44:08.353Z,100878.97
2023-03-27T07:46:35.080Z,100876.53
2023-03-27T07:49:01.828Z,100886.38
2023-03-27T07:51:28.602Z,100885.84
2023-03-27T07:54:01.274Z,100885.91
2023-03-27T07:56:28.276Z,100880.72
2023-03-27T07:58:55.427Z,100888.59
2023-03-27T08:01:22.218Z,100879.44
2023-03-27T08:03:49.559Z,100893.53
2023-03-27T08:06:19.039Z,100892.00
2023-03-27T08:08:45.861Z,100897.28
2023-03-27T08:11:19.764Z,100894.69
2023-03-27T08:13:54.555Z,100894.59
2023-03-27T08:16:21.833Z,100899.78
2023-03-27T08:18:49.899Z,100898.94
2023-03-27T08:21:16.976Z,100901.53
2023-03-27T08:23:43.687Z,100897.19
2023-03-27T08:26:10.578Z,100898.72
2023-03-27T08:28:37.893Z,100896.13
2023-03-27T08:31:11.578Z,100904.69
2023-03-27T08:33:39.407Z,100908.25
2023-03-27T08:36:07.581Z,100912.75
2023-03-27T08:38:39.601Z,100917.44
2023-03-27T08:41:07.176Z,100931.34
2023-03-27T08:43:41.752Z,100927.94
2023-03-27T08:46:25.970Z,100924.16
2023-03-27T08:49:07.028Z,100937.13
2023-03-27T08:51:52.720Z,100924.88
2023-03-27T08:54:30.322Z,100924.84
2023-03-27T08:56:58.112Z,100927.31
2023-03-27T08:59:28.194Z,100929.97
2023-03-27T09:01:54.873Z,100932.38
2023-03-27T09:04:48.757Z,100934.56
2023-03-27T09:07:54.147Z,100932.53
2023-03-27T09:10:47.153Z,100931.72
2023-03-27T09:13:18.915Z,100937.00
2023-03-27T09:15:58.791Z,100948.97
2023-03-27T09:18:39.226Z,100940.56
2023-03-27T09:21:14.702Z,100950.75
2023-03-27T09:23:46.638Z,100947.03
2023-03-27T09:26:19.070Z,100948.78
2023-03-27T09:29:10.623Z,100954.00
2023-03-27T09:31:47.714Z,100961.59
2023-03-27T09:34:19.776Z,100960.16
2023-03-27T09:36:46.842Z,100957.78
2023-03-27T09:39:17.756Z,100973.44
2023-03-27T09:41:52.959Z,100968.34
2023-03-27T09:44:33.562Z,100963.06
2023-03-27T09:47:05.464Z,100964.53
2023-03-27T09:49:34.349Z,100952.75
2023-03-27T09:52:02.721Z,100972.53
2023-03-27T09:54:29.450Z,100969.91
2023-03-27T09:57:05.501Z,100962.84
2023-03-27T09:59:55.059Z,100981.22
2023-03-27T10:02:26.254Z,100970.06
2023-03-27T10:05:12.266Z,100976.09
2023-03-27T10:07:40.967Z,100978.09
2023-03-27T10:10:20.254Z,100970.97
2023-03-27T10:12:57.326Z,100987.03
2023-03-27T10:15:39.043Z,100981.69
2023-03-27T10:18:22.358Z,100974.78
2023-03-27T10:20:58.767Z,100977.09
2023-03-27T10:23:28.503Z,100993.91
2023-03-27T10:26:01.800Z,100988.50
2023-03-27T10:28:34.613Z,100974.66
2023-03-27T10:31:04.649Z,100982.59
2023-03-27T10:33:36.844Z,100994.06
2023-03-27T10:36:07.289Z,101003.13
2023-03-27T10:38:37.989Z,100996.44
2023-03-27T10:41:15.161Z,100995.97
2023-03-27T10:43:44.486Z,100989.75
2023-03-27T10:46:17.039Z,101004.19
2023-03-27T10:49:02.324Z,101011.56
2023-03-27T10:51:45.563Z,101005.81
2023-03-27T10:54:22.097Z,101009.00
2023-03-27T10:57:12.720Z,101017.44
2023-03-27T11:00:18.748Z,101008.75
2023-03-27T11:03:25.802Z,101008.22
2023-03-27T11:05:54.502Z,101016.19
2023-03-27T11:08:34.218Z,101021.84
2023-03-27T11:11:13.117Z,101018.38
2023-03-27T11:13:47.620Z,101014.47
2023-03-27T11:16:39.962Z,101008.75
2023-03-27T11:19:09.731Z,101024.75
2023-03-27T11:22:04.963Z,101030.31
2023-03-27T11:25:06.070Z,101024.09
2023-03-27T11:27:43.272Z,101026.63
2023-03-27T11:30:14.771Z,101025.88
2023-03-27T11:32:53.064Z,101022.69
2023-03-27T11:35:27.978Z,101034.16
2023-03-27T11:38:31.617Z,101024.06
2023-03-27T11:40:59.314Z,101025.56
2023-03-27T11:43:26.388Z,101018.84
2023-03-27T11:46:16.220Z,101035.72
2023-03-27T11:49:20.533Z,101026.41
2023-03-27T11:51:59.143Z,101024.66
2023-03-27T11:54:43.745Z,101023.13
2023-03-27T11:57:23.245Z,101032.28
2023-03-27T12:00:06.285Z,101025.28
2023-03-27T12:03:07.053Z,101033.16
2023-03-27T12:06:17.995Z,101024.00
2023-03-27T12:09:27.384Z,101028.59
2023-03-27T12:12:14.956Z,101022.03
2023-03-27T12:15:02.650Z,101009.00
2023-03-27T12:17:50.456Z,101010.13
2023-03-27T12:20:20.383Z,101014.84
2023-03-27T12:23:05.396Z,101022.22
2023-03-27T12:25:38.694Z,101019.34
2023-03-27T12:28:22.516Z,101010.13
2023-03-27T12:31:05.780Z,101032.53
2023-03-27T12:33:59.693Z,101038.44
2023-03-27T12:36:28.128Z,101063.47
2023-03-27T12:38:55.994Z,101053.97
2023-03-27T12:41:30.069Z,101055.94
2023-03-27T12:44:01.046Z,101052.38
2023-03-27T12:46:28.601Z,101046.97
2023-03-27T12:48:55.364Z,101045.59
2023-03-27T12:51:47.672Z,101041.09
2023-03-27T12:54:14.341Z,101053.44
2023-03-27T12:56:41.456Z,101051.16
2023-03-27T12:59:49.938Z,101034.34
2023-03-27T13:02:39.037Z,101041.31
2023-03-27T13:05:27.360Z,101038.31
2023-03-27T13:08:12.766Z,101034.19
2023-03-27T13:10:58.109Z,101031.25
2023-03-27T13:13:43.219Z,101041.22
2023-03-27T13:16:34.976Z,101026.56
2023-03-27T13:19:10.679Z,101032.84
2023-03-27T13:22:08.395Z,101052.50
2023-03-27T13:25:08.046Z,101074.16
2023-03-27T13:27:51.763Z,101083.59
2023-03-27T13:30:45.673Z,101102.41
2023-03-27T13:33:24.494Z,101134.66
2023-03-27T13:35:57.545Z,101123.00
2023-03-27T13:38:43.506Z,101110.66
2023-03-27T13:41:37.999Z,101116.34
2023-03-27T13:44:11.078Z,101111.59
2023-03-27T13:46:40.177Z,101106.25
2023-03-27T13:49:17.237Z,101108.84
2023-03-27T13:52:02.603Z,101108.88
2023-03-27T13:55:00.592Z,101098.06
2023-03-27T13:57:27.242Z,101103.03
2023-03-27T14:00:18.633Z,101111.66
2023-03-27T14:03:14.924Z,101122.22
2023-03-27T14:06:00.778Z,101112.06
2023-03-27T14:08:46.490Z,101113.00
2023-03-27T14:11:47.347Z,101113.88
2023-03-27T14:14:16.800Z,101112.28
2023-03-27T14:16:50.797Z,101113.94
2023-03-27T14:19:31.039Z,101110.56
2023-03-27T14:22:05.497Z,101115.78
2023-03-27T14:24:38.510Z,101114.88
2023-03-27T14:27:11.020Z,101124.44
2023-03-27T14:29:38.279Z,101112.28
2023-03-27T14:32:07.359Z,101116.47
2023-03-27T14:34:43.465Z,101110.31
2023-03-27T14:37:30.933Z,101115.56
2023-03-27T14:39:59.803Z,101113.47
2023-03-27T14:42:33.189Z,101110.81
2023-03-27T14:45:23.191Z,101116.72
2023-03-27T14:47:54.297Z,101123.00
2023-03-27T14:50:21.510Z,101122.97
2023-03-27T14:52:53.456Z,101125.44
2023-03-27T14:55:22.758Z,101126.50
2023-03-27T14:57:51.508Z,101130.81
2023-03-27T15:00:21.592Z,101123.97
2023-03-27T15:02:50.039Z,101116.97
2023-03-27T15:05:18.322Z,101125.41
2023-03-27T15:07:49.112Z,101129.19
2023-03-27T15:10:24.451Z,101128.53
2023-03-27T15:12:51.669Z,101136.28
2023-03-27T15:15:40.097Z,101131.13
2023-03-27T15:18:16.794Z,101132.84
2023-03-27T15:20:44.298Z,101122.53
2023-03-27T15:23:38.788Z,101128.59
2023-03-27T15:26:14.006Z,101135.47
2023-03-27T15:28:50.113Z,101127.66
2023-03-27T15:31:17.879Z,101118.13
2023-03-27T15:34:02.478Z,101127.53
2023-03-27T15:36:34.449Z,101123.19
2023-03-27T15:39:04.249Z,101125.84
2023-03-27T15:41:33.720Z,101126.66
2023-03-27T15:44:08.385Z,101133.53
2023-03-27T15:47:03.741Z,101128.84
2023-03-27T15:49:38.953Z,101125.72
2023-03-27T15:52:30.361Z,101133.88
2023-03-27T15:54:59.773Z,101139.81
2023-03-27T15:57:31.589Z,101135.09
2023-03-27T16:00:14.876Z,101136.31
2023-03-27T16:02:41.929Z,101138.31
2023-03-27T16:05:08.956Z,101134.16
2023-03-27T16:07:45.261Z,101142.41
2023-03-27T16:10:12.608Z,101138.56
2023-03-27T16:12:47.964Z,101146.50
2023-03-27T16:15:38.211Z,101150.25
2023-03-27T16:18:19.070Z,101148.88
2023-03-27T16:20:45.956Z,101154.63
2023-03-27T16:23:12.730Z,101158.44
2023-03-27T16:25:41.428Z,101162.31
2023-03-27T16:28:10.101Z,101165.03
2023-03-27T16:30:41.197Z,101165.94
2023-03-27T16:33:19.334Z,101179.00
2023-03-27T16:35:46.279Z,101185.97
2023-03-27T16:38:14.124Z,101183.41
2023-03-27T16:40:40.990Z,101182.50
2023-03-27T16:43:07.815Z,101204.16
2023-03-27T16:45:34.942Z,101213.78
2023-03-27T16:48:01.880Z,101225.88
2023-03-27T16:50:30.858Z,101228.41
2023-03-27T16:52:58.074Z,101211.94
2023-03-27T16:55:25.276Z,101220.59
2023-03-27T16:57:54.231Z,101209.34
2023-03-27T17:00:21.428Z,101213.66
2023-03-27T17:02:48.372Z,101215.31
2023-03-27T17:05:15.891Z,101213.56
2023-03-27T17:07:44.127Z,101216.13
2023-03-27T17:10:11.105Z,101218.69
2023-03-27T17:12:38.178Z,101218.66
2023-03-27T17:15:05.995Z,101222.09
2023-03-27T17:17:32.828Z,101225.47
2023-03-27T17:19:59.844Z,101233.22
2023-03-27T17:22:29.941Z,101238.31
2023-03-27T17:24:58.036Z,101245.22
2023-03-27T17:27:26.799Z,101252.03
2023-03-27T17:29:55.765Z,101251.13
2023-03-27T17:32:23.077Z,101255.41
2023-03-27T17:34:51.933Z,101256.22
2023-03-27T17:37:19.613Z,101261.38
2023-03-27T17:39:46.625Z,101264.75
2023-03-27T17:42:13.379Z,101263.84
2023-03-27T17:44:41.604Z,101256.09
2023-03-27T17:47:08.684Z,101274.97
2023-03-27T17:49:35.506Z,101274.09
2023-03-27T17:52:07.879Z,101275.81
2023-03-27T17:54:35.054Z,101275.84
2023-03-27T17:57:02.339Z,101275.75
2023-03-27T17:59:31.263Z,101286.94
2023-03-27T18:01:59.086Z,101286.03
2023-03-27T18:04:26.004Z,101293.72
2023-03-27T18:06:53.274Z,101290.28
2023-03-27T18:09:20.336Z,101293.72
2023-03-27T18:11:47.478Z,101289.31
2023-03-27T18:14:14.375Z,101288.47
2023-03-27T18:16:41.267Z,101292.81
2023-03-27T18:19:09.111Z,101295.38
2023-03-27T18:21:36.299Z,101285.03
2023-03-27T18:24:03.637Z,101285.00
2023-03-27T18:26:30.412Z,101285.84
2023-03-27T18:28:57.923Z,101274.66
2023-03-27T18:31:25.656Z,101283.28
2023-03-27T18:33:52.823Z,101275.53
2023-03-27T18:36:19.643Z,101277.25
2023-03-27T18:38:48.478Z,101285.00
2023-03-27T18:41:16.696Z,101285.81
2023-03-27T18:43:43.530Z,101278.94
2023-03-27T18:46:16.818Z,101290.22
2023-03-27T18:48:44.959Z,101293.72
2023-03-27T18:51:11.636Z,101301.59
2023-03-27T18:53:38.419Z,101304.31
2023-03-27T18:56:05.456Z,101304.50
2023-03-27T18:58:33.435Z,101307.25
2023-03-27T19:01:01.070Z,101296.81
2023-03-27T19:03:35.191Z,101293.28
2023-03-27T19:06:04.490Z,101294.84
2023-03-27T19:08:33.140Z,101278.47
2023-03-27T19:11:00.076Z,101286.22
2023-03-27T19:13:26.998Z,101280.25
2023-03-27T19:15:53.851Z,101276.72
2023-03-27T19:18:21.255Z,101283.66
2023-03-27T19:20:47.977Z,101266.31
2023-03-27T19:23:14.753Z,101270.63
2023-03-27T19:25:45.750Z,101268.25
2023-03-27T19:28:12.554Z,101265.59
2023-03-27T19:30:39.367Z,101267.28
2023-03-27T19:33:06.757Z,101272.47
2023-03-27T19:35:33.652Z,101271.59
2023-03-27T19:38:00.769Z,101264.69
2023-03-27T19:40:27.530Z,101265.66
2023-03-27T19:42:54.468Z,101264.84
2023-03-27T19:45:21.397Z,101268.31
2023-03-27T19:47:48.167Z,101273.53
2023-03-27T19:50:15.148Z,101266.59
2023-03-27T19:52:49.450Z,101267.41
2023-03-27T19:55:25.550Z,101266.56
2023-03-27T19:57:55.006Z,101269.16
2023-03-27T20:00:22.679Z,101263.94
2023-03-27T20:02:49.700Z,101271.63
2023-03-27T20:05:16.554Z,101265.66
2023-03-27T20:07:43.401Z,101265.56
2023-03-27T20:10:13.228Z,101258.72
2023-03-27T20:12:39.985Z,101261.25
2023-03-27T20:15:12.241Z,101266.50
2023-03-27T20:17:39.389Z,101270.84
2023-03-27T20:20:11.198Z,101260.56
2023-03-27T20:22:50.198Z,101253.66
2023-03-27T20:25:24.143Z,101254.56
2023-03-27T20:27:52.119Z,101254.53
2023-03-27T20:30:18.943Z,101261.44
2023-03-27T20:32:45.881Z,101247.66
2023-03-27T20:35:22.903Z,101252.84
2023-03-27T20:37:56.544Z,101245.94
2023-03-27T20:40:24.312Z,101250.31
2023-03-27T20:43:03.572Z,101241.69
2023-03-27T20:45:31.260Z,101245.09
2023-03-27T20:48:03.399Z,101241.59
2023-03-27T20:50:35.887Z,101243.28
2023-03-27T20:53:04.791Z,101241.53
2023-03-27T20:55:34.556Z,101243.25
2023-03-27T20:58:06.622Z,101249.31
2023-03-27T21:00:33.664Z,101237.25
2023-03-27T21:03:00.697Z,101241.53
2023-03-27T21:05:28.018Z,101243.28
2023-03-27T21:07:54.877Z,101236.38
2023-03-27T21:10:21.782Z,101245.09
2023-03-27T21:12:51.229Z,101245.97
2023-03-27T21:15:18.101Z,101241.66
2023-03-27T21:17:44.999Z,101235.56
2023-03-27T21:20:11.975Z,101243.38
2023-03-27T21:22:38.684Z,101234.75
2023-03-27T21:25:05.778Z,101228.72
2023-03-27T21:27:32.505Z,101239.06
2023-03-27T21:29:59.268Z,101217.53
2023-03-27T21:32:26.009Z,101221.91
2023-03-27T21:34:52.751Z,101216.72
2023-03-27T21:37:19.882Z,101216.75
2023-03-27T21:39:46.817Z,101224.41
2023-03-27T21:42:13.689Z,101223.44
2023-03-27T21:44:40.429Z,101228.53
2023-03-27T21:47:07.172Z,101231.97
2023-03-27T21:49:33.885Z,101231.03
2023-03-27T21:52:00.617Z,101233.56
2023-03-27T21:54:27.299Z,101237.88
2023-03-27T21:56:54.058Z,101231.78
2023-03-27T21:59:20.964Z,101231.81
2023-03-27T22:01:47.844Z,101225.69
2023-03-27T22:04:14.661Z,101229.16
2023-03-27T22:06:41.448Z,101222.31
2023-03-27T22:09:08.203Z,101218.00
2023-03-27T22:11:34.899Z,101227.41
2023-03-27T22:14:01.653Z,101232.69
2023-03-27T22:16:28.483Z,101237.88
2023-03-27T22:18:56.130Z,101247.34
2023-03-27T22:21:26.029Z,101232.72
2023-03-27T22:23:54.109Z,101246.47
2023-03-27T22:26:23.669Z,101246.56
2023-03-27T22:28:52.773Z,101240.53
2023-03-27T22:31:21.232Z,101252.59
2023-03-27T22:33:48.468Z,101251.78
2023-03-27T22:36:15.945Z,101248.28
2023-03-27T22:38:43.332Z,101264.69
2023-03-27T22:41:12.563Z,101257.78
2023-03-27T22:43:39.678Z,101262.97
2023-03-27T22:46:15.146Z,101275.03
2023-03-27T22:48:42.510Z,101269.84
2023-03-27T22:51:11.539Z,101272.56
2023-03-27T22:53:38.609Z,101275.16
2023-03-27T22:56:06.568Z,101272.59
2023-03-27T22:58:34.106Z,101270.09
2023-03-27T23:01:01.178Z,101271.81
2023-03-27T23:03:28.496Z,101273.53
2023-03-27T23:05:55.603Z,101278.78
2023-03-27T23:08:27.433Z,101275.34
2023-03-27T23:11:05.982Z,101269.22
2023-03-27T23:13:34.982Z,101276.16
2023-03-27T23:16:02.229Z,101276.13
2023-03-27T23:18:29.197Z,101269.19
2023-03-27T23:21:07.114Z,101278.78
2023-03-27T23:23:35.614Z,101275.31
2023-03-27T23:26:06.436Z,101272.66
2023-03-27T23:28:36.064Z,101271.72
2023-03-27T23:31:05.638Z,101283.69
2023-03-27T23:33:38.626Z,101292.34
2023-03-27T23:36:08.793Z,101295.81
2023-03-27T23:38:37.524Z,101288.94
2023-03-27T23:41:06.920Z,101290.72
2023-03-27T23:43:34.615Z,101293.25
2023-03-27T23:46:02.074Z,101281.09
2023-03-27T23:48:29.528Z,101284.44
2023-03-27T23:50:57.891Z,101292.28
2023-03-27T23:53:26.366Z,101308.75
2023-03-27T23:55:54.627Z,101305.38
2023-03-27T23:58:21.917Z,101305.31
